sensor_id;sensor_type;location;lat;lon;timestamp;P1;durP1;ratioP1;P2;durP2;ratioP2
18732;SDS011;9495;51.210;2.934;2024-02-26T00:01:59;5.10;;;2.40;;
18732;SDS011;9495;51.210;2.934;2024-02-26T00:04:28;2.97;;;2.23;;
18732;SDS011;9495;51.210;2.934;2024-02-26T00:06:58;4.60;;;2.80;;
18732;SDS011;9495;51.210;2.934;2024-02-26T00:09:26;4.83;;;2.70;;
18732;SDS011;9495;51.210;2.934;2024-02-26T00:11:55;4.93;;;2.70;;
18732;SDS011;9495;51.210;2.934;2024-02-26T00:14:24;6.47;;;2.73;;
18732;SDS011;9495;51.210;2.934;2024-02-26T00:16:53;3.00;;;2.60;;
18732;SDS011;9495;51.210;2.934;2024-02-26T00:19:21;4.77;;;2.70;;
18732;SDS011;9495;51.210;2.934;2024-02-26T00:21:50;4.63;;;3.43;;
18732;SDS011;9495;51.210;2.934;2024-02-26T00:24:21;8.10;;;3.43;;
18732;SDS011;9495;51.210;2.934;2024-02-26T00:26:50;6.37;;;3.80;;
18732;SDS011;9495;51.210;2.934;2024-02-26T00:29:21;4.70;;;2.50;;
18732;SDS011;9495;51.210;2.934;2024-02-26T00:31:50;6.50;;;3.37;;
18732;SDS011;9495;51.210;2.934;2024-02-26T00:34:18;8.47;;;3.83;;
18732;SDS011;9495;51.210;2.934;2024-02-26T00:36:47;5.33;;;3.50;;
18732;SDS011;9495;51.210;2.934;2024-02-26T00:39:15;6.43;;;3.93;;
18732;SDS011;9495;51.210;2.934;2024-02-26T00:41:45;7.23;;;3.60;;
18732;SDS011;9495;51.210;2.934;2024-02-26T00:44:14;6.07;;;3.73;;
18732;SDS011;9495;51.210;2.934;2024-02-26T00:46:43;6.77;;;3.83;;
18732;SDS011;9495;51.210;2.934;2024-02-26T00:49:11;5.47;;;3.80;;
18732;SDS011;9495;51.210;2.934;2024-02-26T00:51:40;5.53;;;3.17;;
18732;SDS011;9495;51.210;2.934;2024-02-26T00:54:09;7.97;;;4.00;;
18732;SDS011;9495;51.210;2.934;2024-02-26T00:56:37;8.07;;;3.97;;
18732;SDS011;9495;51.210;2.934;2024-02-26T00:59:07;6.80;;;3.83;;
18732;SDS011;9495;51.210;2.934;2024-02-26T01:01:35;5.73;;;4.20;;
18732;SDS011;9495;51.210;2.934;2024-02-26T01:04:04;6.03;;;3.20;;
18732;SDS011;9495;51.210;2.934;2024-02-26T01:06:32;9.20;;;4.10;;
18732;SDS011;9495;51.210;2.934;2024-02-26T01:09:01;5.37;;;3.70;;
18732;SDS011;9495;51.210;2.934;2024-02-26T01:11:30;8.30;;;4.30;;
18732;SDS011;9495;51.210;2.934;2024-02-26T01:13:59;8.50;;;4.53;;
18732;SDS011;9495;51.210;2.934;2024-02-26T01:16:28;5.17;;;3.93;;
18732;SDS011;9495;51.210;2.934;2024-02-26T01:18:58;4.23;;;3.80;;
18732;SDS011;9495;51.210;2.934;2024-02-26T01:21:27;5.63;;;3.53;;
18732;SDS011;9495;51.210;2.934;2024-02-26T01:23:56;10.37;;;4.67;;
18732;SDS011;9495;51.210;2.934;2024-02-26T01:26:25;6.80;;;4.53;;
18732;SDS011;9495;51.210;2.934;2024-02-26T01:28:53;5.80;;;3.90;;
18732;SDS011;9495;51.210;2.934;2024-02-26T01:31:22;6.07;;;4.10;;
18732;SDS011;9495;51.210;2.934;2024-02-26T01:33:52;5.53;;;3.40;;
18732;SDS011;9495;51.210;2.934;2024-02-26T01:36:21;5.40;;;3.47;;
18732;SDS011;9495;51.210;2.934;2024-02-26T01:38:49;9.30;;;4.80;;
18732;SDS011;9495;51.210;2.934;2024-02-26T01:41:18;10.00;;;4.70;;
18732;SDS011;9495;51.210;2.934;2024-02-26T01:43:46;8.50;;;4.37;;
18732;SDS011;9495;51.210;2.934;2024-02-26T01:46:14;8.77;;;4.00;;
18732;SDS011;9495;51.210;2.934;2024-02-26T01:48:45;7.10;;;4.80;;
18732;SDS011;9495;51.210;2.934;2024-02-26T01:51:18;10.43;;;5.07;;
18732;SDS011;9495;51.210;2.934;2024-02-26T01:53:46;10.33;;;4.97;;
18732;SDS011;9495;51.210;2.934;2024-02-26T01:56:15;7.63;;;4.63;;
18732;SDS011;9495;51.210;2.934;2024-02-26T01:58:45;9.57;;;4.47;;
18732;SDS011;9495;51.210;2.934;2024-02-26T02:01:14;7.17;;;4.90;;
18732;SDS011;9495;51.210;2.934;2024-02-26T02:03:46;8.40;;;4.97;;
18732;SDS011;9495;51.210;2.934;2024-02-26T02:06:15;7.43;;;5.20;;
18732;SDS011;9495;51.210;2.934;2024-02-26T02:08:45;9.20;;;4.67;;
18732;SDS011;9495;51.210;2.934;2024-02-26T02:11:14;5.27;;;4.00;;
18732;SDS011;9495;51.210;2.934;2024-02-26T02:13:43;10.30;;;5.80;;
18732;SDS011;9495;51.210;2.934;2024-02-26T02:16:11;7.63;;;5.57;;
18732;SDS011;9495;51.210;2.934;2024-02-26T02:18:40;5.97;;;4.10;;
18732;SDS011;9495;51.210;2.934;2024-02-26T02:21:10;7.93;;;4.90;;
18732;SDS011;9495;51.210;2.934;2024-02-26T02:23:38;9.50;;;5.70;;
18732;SDS011;9495;51.210;2.934;2024-02-26T02:26:09;8.37;;;5.40;;
18732;SDS011;9495;51.210;2.934;2024-02-26T02:28:37;9.00;;;6.00;;
18732;SDS011;9495;51.210;2.934;2024-02-26T02:31:07;8.90;;;5.70;;
18732;SDS011;9495;51.210;2.934;2024-02-26T02:33:36;9.53;;;6.17;;
18732;SDS011;9495;51.210;2.934;2024-02-26T02:36:05;10.97;;;6.37;;
18732;SDS011;9495;51.210;2.934;2024-02-26T02:38:38;12.03;;;6.90;;
18732;SDS011;9495;51.210;2.934;2024-02-26T02:41:16;9.17;;;6.27;;
18732;SDS011;9495;51.210;2.934;2024-02-26T02:43:44;10.40;;;7.13;;
18732;SDS011;9495;51.210;2.934;2024-02-26T02:46:13;9.30;;;5.50;;
18732;SDS011;9495;51.210;2.934;2024-02-26T02:48:42;11.57;;;6.97;;
18732;SDS011;9495;51.210;2.934;2024-02-26T02:51:11;7.17;;;6.03;;
18732;SDS011;9495;51.210;2.934;2024-02-26T02:53:41;10.43;;;7.43;;
18732;SDS011;9495;51.210;2.934;2024-02-26T02:56:09;11.40;;;7.40;;
18732;SDS011;9495;51.210;2.934;2024-02-26T02:58:39;9.83;;;6.83;;
18732;SDS011;9495;51.210;2.934;2024-02-26T03:01:07;10.70;;;7.73;;
18732;SDS011;9495;51.210;2.934;2024-02-26T03:03:36;10.73;;;8.03;;
18732;SDS011;9495;51.210;2.934;2024-02-26T03:06:05;11.33;;;8.23;;
18732;SDS011;9495;51.210;2.934;2024-02-26T03:08:33;11.40;;;8.53;;
18732;SDS011;9495;51.210;2.934;2024-02-26T03:11:05;14.10;;;9.30;;
18732;SDS011;9495;51.210;2.934;2024-02-26T03:13:34;9.57;;;7.77;;
18732;SDS011;9495;51.210;2.934;2024-02-26T03:16:04;13.53;;;9.83;;
18732;SDS011;9495;51.210;2.934;2024-02-26T03:18:33;12.70;;;9.07;;
18732;SDS011;9495;51.210;2.934;2024-02-26T03:21:02;10.97;;;8.37;;
18732;SDS011;9495;51.210;2.934;2024-02-26T03:23:31;13.10;;;9.47;;
18732;SDS011;9495;51.210;2.934;2024-02-26T03:26:03;15.63;;;9.33;;
18732;SDS011;9495;51.210;2.934;2024-02-26T03:28:33;13.63;;;8.30;;
18732;SDS011;9495;51.210;2.934;2024-02-26T03:31:01;9.63;;;5.73;;
18732;SDS011;9495;51.210;2.934;2024-02-26T03:33:30;14.13;;;7.93;;
18732;SDS011;9495;51.210;2.934;2024-02-26T03:35:59;10.00;;;6.30;;
18732;SDS011;9495;51.210;2.934;2024-02-26T03:38:28;5.23;;;3.80;;
18732;SDS011;9495;51.210;2.934;2024-02-26T03:40:56;8.50;;;5.20;;
18732;SDS011;9495;51.210;2.934;2024-02-26T03:43:25;7.13;;;3.77;;
18732;SDS011;9495;51.210;2.934;2024-02-26T03:45:54;5.73;;;3.23;;
18732;SDS011;9495;51.210;2.934;2024-02-26T03:48:23;4.67;;;2.93;;
18732;SDS011;9495;51.210;2.934;2024-02-26T03:50:52;5.90;;;3.27;;
18732;SDS011;9495;51.210;2.934;2024-02-26T03:53:21;6.60;;;4.00;;
18732;SDS011;9495;51.210;2.934;2024-02-26T03:55:49;9.27;;;3.90;;
18732;SDS011;9495;51.210;2.934;2024-02-26T03:58:19;6.87;;;3.67;;
18732;SDS011;9495;51.210;2.934;2024-02-26T04:00:47;7.73;;;4.07;;
18732;SDS011;9495;51.210;2.934;2024-02-26T04:03:17;7.53;;;4.30;;
18732;SDS011;9495;51.210;2.934;2024-02-26T04:05:46;6.73;;;4.17;;
18732;SDS011;9495;51.210;2.934;2024-02-26T04:08:14;7.77;;;3.60;;
18732;SDS011;9495;51.210;2.934;2024-02-26T04:10:43;9.83;;;4.30;;
18732;SDS011;9495;51.210;2.934;2024-02-26T04:13:12;7.00;;;4.30;;
18732;SDS011;9495;51.210;2.934;2024-02-26T04:15:41;6.27;;;3.83;;
18732;SDS011;9495;51.210;2.934;2024-02-26T04:18:09;12.00;;;4.73;;
18732;SDS011;9495;51.210;2.934;2024-02-26T04:20:39;6.67;;;3.73;;
18732;SDS011;9495;51.210;2.934;2024-02-26T04:23:09;11.23;;;4.53;;
18732;SDS011;9495;51.210;2.934;2024-02-26T04:25:37;8.50;;;4.13;;
18732;SDS011;9495;51.210;2.934;2024-02-26T04:28:06;9.67;;;4.40;;
18732;SDS011;9495;51.210;2.934;2024-02-26T04:30:34;7.07;;;4.07;;
18732;SDS011;9495;51.210;2.934;2024-02-26T04:33:03;8.90;;;3.93;;
18732;SDS011;9495;51.210;2.934;2024-02-26T04:35:32;7.00;;;3.80;;
18732;SDS011;9495;51.210;2.934;2024-02-26T04:38:03;7.00;;;3.73;;
18732;SDS011;9495;51.210;2.934;2024-02-26T04:40:31;8.03;;;3.93;;
18732;SDS011;9495;51.210;2.934;2024-02-26T04:43:00;5.60;;;4.00;;
18732;SDS011;9495;51.210;2.934;2024-02-26T04:45:29;6.83;;;4.70;;
18732;SDS011;9495;51.210;2.934;2024-02-26T04:47:57;5.87;;;3.33;;
18732;SDS011;9495;51.210;2.934;2024-02-26T04:50:27;7.67;;;4.70;;
18732;SDS011;9495;51.210;2.934;2024-02-26T04:52:55;6.43;;;2.83;;
18732;SDS011;9495;51.210;2.934;2024-02-26T04:55:25;12.20;;;4.50;;
18732;SDS011;9495;51.210;2.934;2024-02-26T04:57:53;5.23;;;2.10;;
18732;SDS011;9495;51.210;2.934;2024-02-26T05:00:22;9.07;;;4.13;;
18732;SDS011;9495;51.210;2.934;2024-02-26T05:02:50;5.80;;;3.60;;
18732;SDS011;9495;51.210;2.934;2024-02-26T05:05:19;6.00;;;3.50;;
18732;SDS011;9495;51.210;2.934;2024-02-26T05:07:47;10.30;;;4.50;;
18732;SDS011;9495;51.210;2.934;2024-02-26T05:10:16;10.23;;;3.20;;
18732;SDS011;9495;51.210;2.934;2024-02-26T05:12:46;8.33;;;3.73;;
18732;SDS011;9495;51.210;2.934;2024-02-26T05:15:14;7.83;;;3.50;;
18732;SDS011;9495;51.210;2.934;2024-02-26T05:17:45;3.93;;;2.80;;
18732;SDS011;9495;51.210;2.934;2024-02-26T05:20:13;7.13;;;3.60;;
18732;SDS011;9495;51.210;2.934;2024-02-26T05:22:42;6.50;;;3.20;;
18732;SDS011;9495;51.210;2.934;2024-02-26T05:25:11;6.00;;;4.00;;
18732;SDS011;9495;51.210;2.934;2024-02-26T05:27:39;6.37;;;3.83;;
18732;SDS011;9495;51.210;2.934;2024-02-26T05:30:09;5.57;;;3.87;;
18732;SDS011;9495;51.210;2.934;2024-02-26T05:32:39;7.20;;;4.10;;
18732;SDS011;9495;51.210;2.934;2024-02-26T05:35:07;5.80;;;4.07;;
18732;SDS011;9495;51.210;2.934;2024-02-26T05:37:36;9.77;;;5.73;;
18732;SDS011;9495;51.210;2.934;2024-02-26T05:40:05;8.90;;;5.23;;
18732;SDS011;9495;51.210;2.934;2024-02-26T05:42:34;9.03;;;5.30;;
18732;SDS011;9495;51.210;2.934;2024-02-26T05:45:02;9.00;;;4.37;;
18732;SDS011;9495;51.210;2.934;2024-02-26T05:47:34;8.47;;;6.03;;
18732;SDS011;9495;51.210;2.934;2024-02-26T05:50:09;7.97;;;3.67;;
18732;SDS011;9495;51.210;2.934;2024-02-26T05:52:37;9.27;;;5.20;;
18732;SDS011;9495;51.210;2.934;2024-02-26T05:55:06;5.57;;;4.70;;
18732;SDS011;9495;51.210;2.934;2024-02-26T05:57:35;6.17;;;3.47;;
18732;SDS011;9495;51.210;2.934;2024-02-26T06:00:05;8.10;;;4.30;;
18732;SDS011;9495;51.210;2.934;2024-02-26T06:02:37;7.63;;;3.53;;
18732;SDS011;9495;51.210;2.934;2024-02-26T06:05:06;9.33;;;5.00;;
18732;SDS011;9495;51.210;2.934;2024-02-26T06:07:35;6.17;;;4.00;;
18732;SDS011;9495;51.210;2.934;2024-02-26T06:10:04;7.23;;;4.20;;
18732;SDS011;9495;51.210;2.934;2024-02-26T06:12:35;7.67;;;3.67;;
18732;SDS011;9495;51.210;2.934;2024-02-26T06:15:03;8.60;;;3.97;;
18732;SDS011;9495;51.210;2.934;2024-02-26T06:17:32;6.13;;;4.10;;
18732;SDS011;9495;51.210;2.934;2024-02-26T06:20:02;9.50;;;4.97;;
18732;SDS011;9495;51.210;2.934;2024-02-26T06:22:33;8.07;;;4.50;;
18732;SDS011;9495;51.210;2.934;2024-02-26T06:25:01;7.70;;;4.47;;
18732;SDS011;9495;51.210;2.934;2024-02-26T06:27:30;8.20;;;3.87;;
18732;SDS011;9495;51.210;2.934;2024-02-26T06:29:58;6.83;;;4.00;;
18732;SDS011;9495;51.210;2.934;2024-02-26T06:32:27;6.07;;;3.63;;
18732;SDS011;9495;51.210;2.934;2024-02-26T06:34:55;10.07;;;4.37;;
18732;SDS011;9495;51.210;2.934;2024-02-26T06:37:26;12.20;;;4.97;;
18732;SDS011;9495;51.210;2.934;2024-02-26T06:39:54;8.93;;;4.47;;
18732;SDS011;9495;51.210;2.934;2024-02-26T06:42:22;8.77;;;3.67;;
18732;SDS011;9495;51.210;2.934;2024-02-26T06:44:51;9.87;;;3.87;;
18732;SDS011;9495;51.210;2.934;2024-02-26T06:47:19;10.37;;;4.13;;
18732;SDS011;9495;51.210;2.934;2024-02-26T06:49:48;7.13;;;3.73;;
18732;SDS011;9495;51.210;2.934;2024-02-26T06:52:17;6.23;;;3.60;;
18732;SDS011;9495;51.210;2.934;2024-02-26T06:54:47;4.73;;;3.27;;
18732;SDS011;9495;51.210;2.934;2024-02-26T06:57:17;7.13;;;4.10;;
18732;SDS011;9495;51.210;2.934;2024-02-26T06:59:46;7.50;;;3.67;;
18732;SDS011;9495;51.210;2.934;2024-02-26T07:02:15;8.43;;;3.73;;
18732;SDS011;9495;51.210;2.934;2024-02-26T07:04:43;10.53;;;4.97;;
18732;SDS011;9495;51.210;2.934;2024-02-26T07:07:12;8.73;;;4.20;;
18732;SDS011;9495;51.210;2.934;2024-02-26T07:09:41;6.87;;;4.00;;
18732;SDS011;9495;51.210;2.934;2024-02-26T07:12:11;6.87;;;3.27;;
18732;SDS011;9495;51.210;2.934;2024-02-26T07:14:40;6.67;;;3.43;;
18732;SDS011;9495;51.210;2.934;2024-02-26T07:17:09;5.17;;;3.73;;
18732;SDS011;9495;51.210;2.934;2024-02-26T07:19:38;6.97;;;3.80;;
18732;SDS011;9495;51.210;2.934;2024-02-26T07:22:07;8.03;;;4.30;;
18732;SDS011;9495;51.210;2.934;2024-02-26T07:24:35;5.77;;;3.03;;
18732;SDS011;9495;51.210;2.934;2024-02-26T07:27:04;7.10;;;2.77;;
18732;SDS011;9495;51.210;2.934;2024-02-26T07:29:34;4.90;;;3.20;;
18732;SDS011;9495;51.210;2.934;2024-02-26T07:32:03;4.67;;;2.03;;
18732;SDS011;9495;51.210;2.934;2024-02-26T07:34:31;4.17;;;2.87;;
18732;SDS011;9495;51.210;2.934;2024-02-26T07:37:00;6.10;;;3.33;;
18732;SDS011;9495;51.210;2.934;2024-02-26T07:39:29;5.13;;;3.13;;
18732;SDS011;9495;51.210;2.934;2024-02-26T07:41:58;8.13;;;3.30;;
18732;SDS011;9495;51.210;2.934;2024-02-26T07:44:26;4.87;;;2.87;;
18732;SDS011;9495;51.210;2.934;2024-02-26T07:46:56;4.43;;;2.20;;
18732;SDS011;9495;51.210;2.934;2024-02-26T07:49:25;4.80;;;3.80;;
18732;SDS011;9495;51.210;2.934;2024-02-26T07:51:53;6.83;;;3.63;;
18732;SDS011;9495;51.210;2.934;2024-02-26T07:54:24;6.70;;;3.97;;
18732;SDS011;9495;51.210;2.934;2024-02-26T07:56:53;8.60;;;4.53;;
18732;SDS011;9495;51.210;2.934;2024-02-26T07:59:22;6.53;;;4.30;;
18732;SDS011;9495;51.210;2.934;2024-02-26T08:01:50;10.07;;;4.07;;
18732;SDS011;9495;51.210;2.934;2024-02-26T08:04:25;6.80;;;4.17;;
18732;SDS011;9495;51.210;2.934;2024-02-26T08:06:54;6.47;;;3.47;;
18732;SDS011;9495;51.210;2.934;2024-02-26T08:09:23;7.87;;;4.27;;
18732;SDS011;9495;51.210;2.934;2024-02-26T08:11:52;9.77;;;4.87;;
18732;SDS011;9495;51.210;2.934;2024-02-26T08:14:21;6.47;;;4.30;;
18732;SDS011;9495;51.210;2.934;2024-02-26T08:16:49;6.07;;;4.13;;
18732;SDS011;9495;51.210;2.934;2024-02-26T08:19:18;8.80;;;4.47;;
18732;SDS011;9495;51.210;2.934;2024-02-26T08:21:48;8.23;;;5.50;;
18732;SDS011;9495;51.210;2.934;2024-02-26T08:24:16;15.93;;;7.23;;
18732;SDS011;9495;51.210;2.934;2024-02-26T08:26:45;10.13;;;4.70;;
18732;SDS011;9495;51.210;2.934;2024-02-26T08:29:13;12.57;;;5.43;;
18732;SDS011;9495;51.210;2.934;2024-02-26T08:31:42;9.93;;;4.93;;
18732;SDS011;9495;51.210;2.934;2024-02-26T08:34:10;9.33;;;5.80;;
18732;SDS011;9495;51.210;2.934;2024-02-26T08:36:39;12.67;;;7.00;;
18732;SDS011;9495;51.210;2.934;2024-02-26T08:39:11;5.87;;;4.33;;
18732;SDS011;9495;51.210;2.934;2024-02-26T08:41:40;10.17;;;5.97;;
18732;SDS011;9495;51.210;2.934;2024-02-26T08:44:09;16.33;;;7.30;;
18732;SDS011;9495;51.210;2.934;2024-02-26T08:46:38;11.83;;;7.80;;
18732;SDS011;9495;51.210;2.934;2024-02-26T08:49:06;11.30;;;6.00;;
18732;SDS011;9495;51.210;2.934;2024-02-26T08:51:35;9.30;;;5.53;;
18732;SDS011;9495;51.210;2.934;2024-02-26T08:54:11;9.67;;;4.70;;
18732;SDS011;9495;51.210;2.934;2024-02-26T08:56:40;13.07;;;6.60;;
18732;SDS011;9495;51.210;2.934;2024-02-26T08:59:08;13.63;;;6.97;;
18732;SDS011;9495;51.210;2.934;2024-02-26T09:01:37;10.80;;;7.00;;
18732;SDS011;9495;51.210;2.934;2024-02-26T09:04:05;9.83;;;6.97;;
18732;SDS011;9495;51.210;2.934;2024-02-26T09:06:35;12.23;;;6.83;;
18732;SDS011;9495;51.210;2.934;2024-02-26T09:09:04;9.23;;;6.27;;
18732;SDS011;9495;51.210;2.934;2024-02-26T09:11:34;11.13;;;7.50;;
18732;SDS011;9495;51.210;2.934;2024-02-26T09:14:03;11.37;;;5.53;;
18732;SDS011;9495;51.210;2.934;2024-02-26T09:16:33;12.50;;;6.47;;
18732;SDS011;9495;51.210;2.934;2024-02-26T09:19:02;15.40;;;7.90;;
18732;SDS011;9495;51.210;2.934;2024-02-26T09:21:31;13.13;;;7.57;;
18732;SDS011;9495;51.210;2.934;2024-02-26T09:24:00;10.67;;;7.90;;
18732;SDS011;9495;51.210;2.934;2024-02-26T09:26:28;10.53;;;6.17;;
18732;SDS011;9495;51.210;2.934;2024-02-26T09:28:58;17.53;;;8.20;;
18732;SDS011;9495;51.210;2.934;2024-02-26T09:31:27;9.93;;;5.37;;
18732;SDS011;9495;51.210;2.934;2024-02-26T09:33:56;10.90;;;7.30;;
18732;SDS011;9495;51.210;2.934;2024-02-26T09:36:28;15.80;;;8.67;;
18732;SDS011;9495;51.210;2.934;2024-02-26T09:38:57;12.73;;;8.63;;
18732;SDS011;9495;51.210;2.934;2024-02-26T09:41:27;16.23;;;11.17;;
18732;SDS011;9495;51.210;2.934;2024-02-26T09:43:57;15.70;;;11.63;;
18732;SDS011;9495;51.210;2.934;2024-02-26T09:46:29;21.63;;;14.73;;
18732;SDS011;9495;51.210;2.934;2024-02-26T09:48:59;15.47;;;10.03;;
18732;SDS011;9495;51.210;2.934;2024-02-26T09:51:27;15.63;;;12.13;;
18732;SDS011;9495;51.210;2.934;2024-02-26T09:53:56;12.10;;;9.60;;
18732;SDS011;9495;51.210;2.934;2024-02-26T09:56:28;16.47;;;10.47;;
18732;SDS011;9495;51.210;2.934;2024-02-26T09:59:00;16.07;;;11.10;;
18732;SDS011;9495;51.210;2.934;2024-02-26T10:01:33;15.80;;;11.83;;
18732;SDS011;9495;51.210;2.934;2024-02-26T10:04:02;13.87;;;10.60;;
18732;SDS011;9495;51.210;2.934;2024-02-26T10:06:31;22.30;;;11.87;;
18732;SDS011;9495;51.210;2.934;2024-02-26T10:08:59;16.77;;;11.70;;
18732;SDS011;9495;51.210;2.934;2024-02-26T10:11:32;20.07;;;12.60;;
18732;SDS011;9495;51.210;2.934;2024-02-26T10:14:04;16.63;;;9.73;;
18732;SDS011;9495;51.210;2.934;2024-02-26T10:16:35;14.47;;;9.33;;
18732;SDS011;9495;51.210;2.934;2024-02-26T10:19:04;17.03;;;9.27;;
18732;SDS011;9495;51.210;2.934;2024-02-26T10:21:33;13.13;;;7.20;;
18732;SDS011;9495;51.210;2.934;2024-02-26T10:24:02;15.03;;;8.90;;
18732;SDS011;9495;51.210;2.934;2024-02-26T10:26:31;18.70;;;10.53;;
18732;SDS011;9495;51.210;2.934;2024-02-26T10:28:59;12.73;;;7.30;;
18732;SDS011;9495;51.210;2.934;2024-02-26T10:31:30;14.00;;;7.73;;
18732;SDS011;9495;51.210;2.934;2024-02-26T10:33:58;11.53;;;7.57;;
18732;SDS011;9495;51.210;2.934;2024-02-26T10:36:33;10.80;;;6.87;;
18732;SDS011;9495;51.210;2.934;2024-02-26T10:39:17;16.17;;;7.27;;
18732;SDS011;9495;51.210;2.934;2024-02-26T10:41:46;15.00;;;8.00;;
18732;SDS011;9495;51.210;2.934;2024-02-26T10:44:15;10.63;;;6.43;;
18732;SDS011;9495;51.210;2.934;2024-02-26T10:46:47;11.20;;;6.70;;
18732;SDS011;9495;51.210;2.934;2024-02-26T10:49:17;13.23;;;6.27;;
18732;SDS011;9495;51.210;2.934;2024-02-26T10:51:50;11.87;;;6.37;;
18732;SDS011;9495;51.210;2.934;2024-02-26T10:54:23;9.40;;;5.83;;
18732;SDS011;9495;51.210;2.934;2024-02-26T10:56:54;13.07;;;6.53;;
18732;SDS011;9495;51.210;2.934;2024-02-26T10:59:24;10.60;;;5.93;;
18732;SDS011;9495;51.210;2.934;2024-02-26T11:01:55;11.30;;;5.93;;
18732;SDS011;9495;51.210;2.934;2024-02-26T11:04:24;10.20;;;6.00;;
18732;SDS011;9495;51.210;2.934;2024-02-26T11:06:57;12.20;;;7.13;;
18732;SDS011;9495;51.210;2.934;2024-02-26T11:09:27;27.00;;;8.73;;
18732;SDS011;9495;51.210;2.934;2024-02-26T11:11:56;23.60;;;10.37;;
18732;SDS011;9495;51.210;2.934;2024-02-26T11:14:26;25.47;;;9.47;;
18732;SDS011;9495;51.210;2.934;2024-02-26T11:16:59;25.80;;;8.93;;
18732;SDS011;9495;51.210;2.934;2024-02-26T11:19:28;23.07;;;8.67;;
18732;SDS011;9495;51.210;2.934;2024-02-26T11:22:04;22.80;;;8.90;;
18732;SDS011;9495;51.210;2.934;2024-02-26T11:24:46;19.10;;;9.10;;
18732;SDS011;9495;51.210;2.934;2024-02-26T11:27:15;17.43;;;7.30;;
18732;SDS011;9495;51.210;2.934;2024-02-26T11:29:47;18.13;;;6.73;;
18732;SDS011;9495;51.210;2.934;2024-02-26T11:32:20;14.53;;;5.63;;
18732;SDS011;9495;51.210;2.934;2024-02-26T11:34:49;17.63;;;6.10;;
18732;SDS011;9495;51.210;2.934;2024-02-26T11:37:18;23.30;;;7.33;;
18732;SDS011;9495;51.210;2.934;2024-02-26T11:39:48;10.40;;;4.23;;
18732;SDS011;9495;51.210;2.934;2024-02-26T11:42:22;13.47;;;4.23;;
18732;SDS011;9495;51.210;2.934;2024-02-26T11:44:52;11.83;;;4.57;;
18732;SDS011;9495;51.210;2.934;2024-02-26T11:47:23;13.17;;;5.03;;
18732;SDS011;9495;51.210;2.934;2024-02-26T11:49:52;14.30;;;5.03;;
18732;SDS011;9495;51.210;2.934;2024-02-26T11:52:20;10.43;;;3.73;;
18732;SDS011;9495;51.210;2.934;2024-02-26T11:54:49;11.63;;;4.70;;
18732;SDS011;9495;51.210;2.934;2024-02-26T11:57:20;14.93;;;5.47;;
18732;SDS011;9495;51.210;2.934;2024-02-26T11:59:49;13.37;;;5.27;;
18732;SDS011;9495;51.210;2.934;2024-02-26T12:05:13;9.77;;;3.87;;
18732;SDS011;9495;51.210;2.934;2024-02-26T12:07:44;17.43;;;5.57;;
18732;SDS011;9495;51.210;2.934;2024-02-26T12:10:20;14.93;;;5.07;;
18732;SDS011;9495;51.210;2.934;2024-02-26T12:12:58;12.50;;;5.17;;
18732;SDS011;9495;51.210;2.934;2024-02-26T12:15:31;16.13;;;5.63;;
18732;SDS011;9495;51.210;2.934;2024-02-26T12:18:05;12.27;;;4.23;;
18732;SDS011;9495;51.210;2.934;2024-02-26T12:20:36;20.50;;;6.10;;
18732;SDS011;9495;51.210;2.934;2024-02-26T12:23:05;9.47;;;3.17;;
18732;SDS011;9495;51.210;2.934;2024-02-26T12:25:33;8.80;;;3.57;;
18732;SDS011;9495;51.210;2.934;2024-02-26T12:28:02;10.43;;;4.53;;
18732;SDS011;9495;51.210;2.934;2024-02-26T12:30:30;14.43;;;4.47;;
18732;SDS011;9495;51.210;2.934;2024-02-26T12:32:59;13.47;;;4.83;;
18732;SDS011;9495;51.210;2.934;2024-02-26T12:35:29;9.50;;;4.23;;
18732;SDS011;9495;51.210;2.934;2024-02-26T12:37:59;19.77;;;6.03;;
18732;SDS011;9495;51.210;2.934;2024-02-26T12:40:27;10.97;;;2.80;;
18732;SDS011;9495;51.210;2.934;2024-02-26T12:42:56;11.40;;;4.63;;
18732;SDS011;9495;51.210;2.934;2024-02-26T12:45:25;12.53;;;4.10;;
18732;SDS011;9495;51.210;2.934;2024-02-26T12:47:55;12.53;;;4.97;;
18732;SDS011;9495;51.210;2.934;2024-02-26T12:50:24;18.87;;;5.07;;
18732;SDS011;9495;51.210;2.934;2024-02-26T12:52:54;13.03;;;4.73;;
18732;SDS011;9495;51.210;2.934;2024-02-26T12:55:22;9.20;;;3.33;;
18732;SDS011;9495;51.210;2.934;2024-02-26T12:57:51;8.10;;;4.17;;
18732;SDS011;9495;51.210;2.934;2024-02-26T13:00:21;16.17;;;4.60;;
18732;SDS011;9495;51.210;2.934;2024-02-26T13:02:56;13.53;;;4.03;;
18732;SDS011;9495;51.210;2.934;2024-02-26T13:05:25;17.60;;;4.97;;
18732;SDS011;9495;51.210;2.934;2024-02-26T13:07:55;17.20;;;4.70;;
18732;SDS011;9495;51.210;2.934;2024-02-26T13:10:24;9.20;;;2.83;;
18732;SDS011;9495;51.210;2.934;2024-02-26T13:12:52;16.73;;;4.23;;
18732;SDS011;9495;51.210;2.934;2024-02-26T13:15:21;16.47;;;5.37;;
18732;SDS011;9495;51.210;2.934;2024-02-26T13:17:50;13.60;;;4.97;;
18732;SDS011;9495;51.210;2.934;2024-02-26T13:20:26;15.37;;;4.87;;
18732;SDS011;9495;51.210;2.934;2024-02-26T13:23:03;12.37;;;3.73;;
18732;SDS011;9495;51.210;2.934;2024-02-26T13:25:33;11.93;;;3.57;;
18732;SDS011;9495;51.210;2.934;2024-02-26T13:28:09;7.80;;;3.10;;
18732;SDS011;9495;51.210;2.934;2024-02-26T13:30:49;13.33;;;4.43;;
18732;SDS011;9495;51.210;2.934;2024-02-26T13:33:19;13.33;;;3.90;;
18732;SDS011;9495;51.210;2.934;2024-02-26T13:35:50;14.47;;;4.23;;
18732;SDS011;9495;51.210;2.934;2024-02-26T13:38:21;13.90;;;4.57;;
18732;SDS011;9495;51.210;2.934;2024-02-26T13:40:49;10.73;;;3.13;;
18732;SDS011;9495;51.210;2.934;2024-02-26T13:43:18;11.70;;;3.67;;
18732;SDS011;9495;51.210;2.934;2024-02-26T13:45:47;16.37;;;4.37;;
18732;SDS011;9495;51.210;2.934;2024-02-26T13:48:15;17.57;;;4.13;;
18732;SDS011;9495;51.210;2.934;2024-02-26T13:50:44;12.57;;;4.33;;
18732;SDS011;9495;51.210;2.934;2024-02-26T13:53:13;10.97;;;3.80;;
18732;SDS011;9495;51.210;2.934;2024-02-26T13:55:43;13.60;;;4.37;;
18732;SDS011;9495;51.210;2.934;2024-02-26T13:58:12;20.60;;;4.50;;
18732;SDS011;9495;51.210;2.934;2024-02-26T14:00:41;24.17;;;4.30;;
18732;SDS011;9495;51.210;2.934;2024-02-26T14:03:10;16.43;;;4.63;;
18732;SDS011;9495;51.210;2.934;2024-02-26T14:05:39;8.70;;;2.80;;
18732;SDS011;9495;51.210;2.934;2024-02-26T14:08:13;10.73;;;3.87;;
18732;SDS011;9495;51.210;2.934;2024-02-26T14:10:43;15.57;;;3.30;;
18732;SDS011;9495;51.210;2.934;2024-02-26T14:13:12;14.67;;;3.17;;
18732;SDS011;9495;51.210;2.934;2024-02-26T14:15:41;11.90;;;3.33;;
18732;SDS011;9495;51.210;2.934;2024-02-26T14:18:09;6.23;;;2.73;;
18732;SDS011;9495;51.210;2.934;2024-02-26T14:20:38;21.13;;;4.87;;
18732;SDS011;9495;51.210;2.934;2024-02-26T14:23:07;14.00;;;4.50;;
18732;SDS011;9495;51.210;2.934;2024-02-26T14:25:35;19.40;;;5.77;;
18732;SDS011;9495;51.210;2.934;2024-02-26T14:28:05;11.83;;;3.70;;
18732;SDS011;9495;51.210;2.934;2024-02-26T14:30:36;14.83;;;4.43;;
18732;SDS011;9495;51.210;2.934;2024-02-26T14:33:05;22.73;;;4.37;;
18732;SDS011;9495;51.210;2.934;2024-02-26T14:35:33;18.03;;;4.97;;
18732;SDS011;9495;51.210;2.934;2024-02-26T14:38:02;13.23;;;3.67;;
18732;SDS011;9495;51.210;2.934;2024-02-26T14:40:30;11.40;;;3.57;;
18732;SDS011;9495;51.210;2.934;2024-02-26T14:42:59;24.10;;;4.53;;
18732;SDS011;9495;51.210;2.934;2024-02-26T14:45:29;22.60;;;5.13;;
18732;SDS011;9495;51.210;2.934;2024-02-26T14:47:58;11.43;;;3.83;;
18732;SDS011;9495;51.210;2.934;2024-02-26T14:50:27;13.57;;;4.53;;
18732;SDS011;9495;51.210;2.934;2024-02-26T14:52:56;9.43;;;3.40;;
18732;SDS011;9495;51.210;2.934;2024-02-26T14:55:26;10.97;;;3.20;;
18732;SDS011;9495;51.210;2.934;2024-02-26T14:57:55;13.33;;;4.07;;
18732;SDS011;9495;51.210;2.934;2024-02-26T15:00:23;13.43;;;3.87;;
18732;SDS011;9495;51.210;2.934;2024-02-26T15:02:53;18.30;;;4.97;;
18732;SDS011;9495;51.210;2.934;2024-02-26T15:05:22;8.53;;;3.10;;
18732;SDS011;9495;51.210;2.934;2024-02-26T15:07:51;17.80;;;4.73;;
18732;SDS011;9495;51.210;2.934;2024-02-26T15:10:19;16.50;;;4.60;;
18732;SDS011;9495;51.210;2.934;2024-02-26T15:12:47;17.17;;;5.17;;